createdAt,value
2022-12-23T00:01:09.512Z,21.17
2022-12-23T00:06:50.892Z,21.00
2022-12-23T00:09:36.442Z,20.98
2022-12-23T00:12:41.025Z,23.73
2022-12-23T00:15:26.718Z,22.17
2022-12-23T00:18:12.225Z,22.85
2022-12-23T00:21:09.064Z,25.92
2022-12-23T00:23:54.738Z,28.27
2022-12-23T00:26:40.132Z,28.70
2022-12-23T00:29:25.495Z,25.73
2022-12-23T00:32:10.995Z,25.67
2022-12-23T00:34:56.298Z,26.33
2022-12-23T00:37:41.927Z,23.38
2022-12-23T00:40:46.261Z,22.23
2022-12-23T00:43:31.904Z,18.52
2022-12-23T00:46:17.631Z,23.67
2022-12-23T00:49:22.155Z,15.73
2022-12-23T00:52:11.781Z,20.83
2022-12-23T00:54:57.189Z,18.80
2022-12-23T00:57:42.696Z,19.02
2022-12-23T01:00:46.516Z,20.02
2022-12-23T01:03:50.931Z,18.27
2022-12-23T01:06:36.376Z,21.63
2022-12-23T01:09:21.807Z,26.80
2022-12-23T01:12:07.478Z,25.90
2022-12-23T01:14:53.395Z,24.20
2022-12-23T01:17:39.162Z,18.67
2022-12-23T01:20:25.289Z,19.92
2022-12-23T01:23:10.976Z,16.05
2022-12-23T01:25:58.629Z,19.02
2022-12-23T01:28:44.381Z,16.77
2022-12-23T01:31:30.438Z,15.68
2022-12-23T01:34:16.426Z,17.42
2022-12-23T01:37:02.306Z,23.02
2022-12-23T01:39:47.782Z,23.58
2022-12-23T01:42:45.278Z,18.60
2022-12-23T01:45:33.441Z,17.13
2022-12-23T01:48:26.805Z,15.90
2022-12-23T01:51:23.620Z,15.63
2022-12-23T01:54:09.178Z,14.73
2022-12-23T01:56:54.669Z,11.32
2022-12-23T02:00:00.166Z,16.10
2022-12-23T02:03:05.345Z,13.75
2022-12-23T02:05:52.669Z,23.63
2022-12-23T02:08:58.178Z,21.00
2022-12-23T02:12:12.407Z,25.23
2022-12-23T02:15:50.898Z,23.80
2022-12-23T02:18:53.268Z,18.65
2022-12-23T02:25:49.752Z,18.85
2022-12-23T02:28:58.775Z,14.35
2022-12-23T02:32:24.559Z,13.85
2022-12-23T02:35:46.810Z,15.75
2022-12-23T02:38:48.181Z,14.43
2022-12-23T02:42:07.468Z,14.30
2022-12-23T02:45:00.361Z,16.80
2022-12-23T02:47:56.464Z,15.50
2022-12-23T02:50:45.556Z,13.45
2022-12-23T02:53:42.442Z,14.60
2022-12-23T02:56:43.241Z,15.45
2022-12-23T02:59:36.775Z,15.57
2022-12-23T03:02:22.585Z,15.02
2022-12-23T03:05:46.549Z,17.52
2022-12-23T03:08:42.787Z,14.20
2022-12-23T03:12:09.583Z,15.85
2022-12-23T03:15:48.852Z,19.15
2022-12-23T03:19:05.203Z,18.00
2022-12-23T03:22:08.331Z,19.70
2022-12-23T03:25:20.667Z,15.68
2022-12-23T03:28:21.058Z,18.63
2022-12-23T03:31:12.806Z,18.50
2022-12-23T03:34:08.199Z,15.45
2022-12-23T03:36:58.662Z,15.88
2022-12-23T03:39:55.128Z,17.75
2022-12-23T03:42:44.584Z,16.63
2022-12-23T03:45:40.283Z,16.38
2022-12-23T03:48:50.395Z,15.45
2022-12-23T03:51:56.266Z,14.07
2022-12-23T03:54:53.181Z,18.10
2022-12-23T03:57:45.345Z,17.58
2022-12-23T04:00:40.829Z,15.10
2022-12-23T04:03:53.429Z,17.30
2022-12-23T04:07:07.420Z,15.40
2022-12-23T04:09:54.273Z,18.80
2022-12-23T04:12:40.416Z,18.10
2022-12-23T04:15:27.879Z,14.95
2022-12-23T04:18:13.777Z,13.52
2022-12-23T04:20:59.455Z,17.23
2022-12-23T04:23:44.769Z,14.45
2022-12-23T04:26:30.033Z,15.07
2022-12-23T04:29:16.180Z,17.70
2022-12-23T04:32:01.665Z,26.20
2022-12-23T04:34:47.088Z,28.02
2022-12-23T04:37:33.276Z,27.73
2022-12-23T04:40:18.948Z,27.60
2022-12-23T04:43:04.845Z,24.02
2022-12-23T04:45:51.968Z,20.65
2022-12-23T04:48:37.758Z,25.65
2022-12-23T04:51:23.731Z,18.33
2022-12-23T04:54:09.131Z,20.45
2022-12-23T04:56:54.518Z,22.67
2022-12-23T04:59:39.908Z,22.13
2022-12-23T05:02:27.012Z,24.40
2022-12-23T05:05:12.987Z,26.45
2022-12-23T05:08:05.563Z,26.05
2022-12-23T05:10:51.445Z,32.00
2022-12-23T05:13:36.926Z,27.23
2022-12-23T05:16:22.432Z,25.92
2022-12-23T05:19:10.022Z,32.20
2022-12-23T05:21:55.704Z,28.42
2022-12-23T05:24:41.171Z,28.67
2022-12-23T05:27:26.462Z,30.23
2022-12-23T05:30:12.331Z,31.17
2022-12-23T05:32:58.624Z,34.10
2022-12-23T05:35:44.526Z,32.25
2022-12-23T05:38:30.386Z,35.40
2022-12-23T05:41:16.833Z,30.17
2022-12-23T05:44:02.657Z,29.27
2022-12-23T05:46:47.987Z,31.63
2022-12-23T05:49:33.276Z,29.63
2022-12-23T05:52:18.815Z,28.67
2022-12-23T05:55:05.341Z,28.33
2022-12-23T05:57:52.341Z,29.15
2022-12-23T06:00:38.438Z,30.20
2022-12-23T06:03:24.694Z,28.08
2022-12-23T06:06:10.392Z,29.17
2022-12-23T06:08:59.872Z,38.22
2022-12-23T06:11:46.327Z,33.22
2022-12-23T06:14:31.728Z,31.00
2022-12-23T06:17:17.559Z,33.72
2022-12-23T06:20:04.019Z,34.05
2022-12-23T06:22:49.846Z,29.48
2022-12-23T06:25:35.288Z,33.83
2022-12-23T06:28:20.866Z,33.90
2022-12-23T06:31:06.185Z,33.65
2022-12-23T06:33:52.317Z,36.25
2022-12-23T06:36:37.654Z,33.25
2022-12-23T06:39:23.318Z,33.63
2022-12-23T06:42:09.262Z,39.25
2022-12-23T06:44:54.986Z,35.67
2022-12-23T06:47:40.650Z,38.97
2022-12-23T06:50:26.481Z,40.08
2022-12-23T06:53:12.777Z,35.08
2022-12-23T06:56:03.454Z,34.67
2022-12-23T06:58:49.174Z,33.38
2022-12-23T07:01:34.809Z,38.50
2022-12-23T07:04:20.626Z,36.72
2022-12-23T07:07:05.915Z,39.67
2022-12-23T07:09:51.181Z,36.60
2022-12-23T07:12:36.511Z,37.78
2022-12-23T07:15:21.955Z,40.33
2022-12-23T07:18:07.867Z,41.05
2022-12-23T07:20:53.303Z,50.60
2022-12-23T07:23:38.824Z,45.33
2022-12-23T07:26:24.119Z,49.95
2022-12-23T07:29:09.418Z,47.72
2022-12-23T07:31:55.086Z,46.45
2022-12-23T07:34:40.896Z,48.22
2022-12-23T07:37:26.577Z,44.83
2022-12-23T07:40:12.608Z,46.05
2022-12-23T07:42:59.445Z,45.95
2022-12-23T07:45:45.074Z,50.80
2022-12-23T07:48:30.839Z,46.88
2022-12-23T07:51:16.462Z,50.50
2022-12-23T07:54:01.743Z,56.45
2022-12-23T07:56:47.226Z,58.00
2022-12-23T07:59:32.832Z,63.92
2022-12-23T08:02:18.332Z,57.20
2022-12-23T08:05:04.771Z,63.97
2022-12-23T08:07:52.124Z,66.18
2022-12-23T08:10:41.456Z,62.08
2022-12-23T08:13:31.449Z,63.28
2022-12-23T08:16:16.830Z,56.13
2022-12-23T08:19:02.810Z,60.65
2022-12-23T08:21:48.517Z,55.40
2022-12-23T08:24:33.917Z,55.78
2022-12-23T08:27:19.731Z,55.83
2022-12-23T08:30:06.854Z,70.13
2022-12-23T08:32:52.398Z,73.00
2022-12-23T08:35:37.689Z,68.20
2022-12-23T08:38:23.276Z,58.70
2022-12-23T08:41:15.853Z,58.58
2022-12-23T08:44:01.168Z,54.05
2022-12-23T08:46:46.970Z,72.90
2022-12-23T08:49:32.554Z,54.80
2022-12-23T08:52:17.979Z,56.75
2022-12-23T08:55:03.601Z,47.50
2022-12-23T08:57:48.952Z,54.10
2022-12-23T09:00:35.564Z,52.20
2022-12-23T09:03:21.500Z,47.28
2022-12-23T09:06:13.827Z,52.35
2022-12-23T09:11:45.915Z,51.15
2022-12-23T09:14:31.643Z,51.25
2022-12-23T09:17:17.811Z,52.08
2022-12-23T09:20:04.723Z,51.90
2022-12-23T09:22:50.554Z,51.40
2022-12-23T09:25:37.245Z,56.08
2022-12-23T09:28:24.247Z,48.17
2022-12-23T09:31:12.379Z,53.80
2022-12-23T09:33:58.077Z,47.75
2022-12-23T09:36:43.511Z,50.88
2022-12-23T09:39:28.872Z,45.83
2022-12-23T09:43:00.956Z,45.70
2022-12-23T09:46:24.047Z,41.67
2022-12-23T09:49:15.400Z,43.80
2022-12-23T09:52:06.595Z,42.17
2022-12-23T09:54:55.402Z,42.42
2022-12-23T09:58:01.109Z,43.53
2022-12-23T10:01:08.649Z,44.38
2022-12-23T10:04:56.412Z,45.40
2022-12-23T10:08:00.218Z,46.67
2022-12-23T10:10:55.322Z,57.55
2022-12-23T10:14:14.927Z,63.28
2022-12-23T10:17:17.902Z,61.03
2022-12-23T10:20:07.037Z,55.55
2022-12-23T10:22:55.155Z,53.67
2022-12-23T10:25:51.624Z,55.15
2022-12-23T10:28:37.599Z,48.55
2022-12-23T10:32:21.681Z,50.03
2022-12-23T10:35:30.075Z,38.85
2022-12-23T10:38:45.443Z,39.53
2022-12-23T10:42:19.588Z,37.78
2022-12-23T10:45:07.583Z,40.95
2022-12-23T10:48:12.030Z,39.20
2022-12-23T10:51:29.895Z,39.20
2022-12-23T10:54:23.991Z,44.95
2022-12-23T10:57:10.423Z,42.70
2022-12-23T10:59:56.843Z,40.55
2022-12-23T11:03:36.505Z,40.67
2022-12-23T11:06:23.223Z,42.28
2022-12-23T11:09:21.958Z,35.95
2022-12-23T11:12:11.005Z,35.00
2022-12-23T11:14:57.951Z,38.17
2022-12-23T11:17:57.140Z,38.72
2022-12-23T11:20:46.020Z,40.17
2022-12-23T11:23:36.611Z,45.17
2022-12-23T11:26:22.432Z,47.78
2022-12-23T11:29:16.079Z,41.75
2022-12-23T11:32:15.161Z,48.80
2022-12-23T11:35:01.005Z,51.92
2022-12-23T11:37:46.892Z,50.95
2022-12-23T11:40:38.729Z,41.55
2022-12-23T11:43:26.542Z,38.10
2022-12-23T11:46:33.165Z,34.92
2022-12-23T11:49:18.897Z,39.47
2022-12-23T11:52:16.956Z,34.20
2022-12-23T11:55:05.852Z,29.98
2022-12-23T11:57:52.564Z,29.85
2022-12-23T12:00:55.292Z,31.40
2022-12-23T12:03:54.758Z,28.33
2022-12-23T12:06:49.761Z,26.77
2022-12-23T12:09:42.106Z,36.58
2022-12-23T12:12:29.346Z,35.88
2022-12-23T12:15:44.161Z,36.22
2022-12-23T12:18:29.999Z,32.75
2022-12-23T12:21:23.824Z,31.33
2022-12-23T12:24:19.854Z,32.33
2022-12-23T12:27:08.121Z,31.58
2022-12-23T12:30:04.576Z,35.55
2022-12-23T12:33:23.440Z,34.22
2022-12-23T12:36:47.886Z,31.42
2022-12-23T12:39:43.993Z,36.47
2022-12-23T12:42:47.333Z,32.15
2022-12-23T12:45:46.000Z,35.10
2022-12-23T12:48:42.112Z,38.40
2022-12-23T12:51:52.895Z,35.95
2022-12-23T12:55:01.958Z,35.17
2022-12-23T12:57:47.372Z,31.58
2022-12-23T13:00:53.345Z,36.60
2022-12-23T13:04:01.220Z,39.28
2022-12-23T13:07:07.875Z,35.10
2022-12-23T13:10:11.426Z,35.45
2022-12-23T13:13:53.586Z,38.92
2022-12-23T13:16:49.303Z,41.22
2022-12-23T13:20:15.451Z,39.88
2022-12-23T13:23:45.795Z,34.47
2022-12-23T13:26:43.982Z,40.63
2022-12-23T13:29:38.046Z,37.38
2022-12-23T13:32:51.167Z,36.65
2022-12-23T13:36:06.194Z,39.95
2022-12-23T13:39:23.209Z,35.83
2022-12-23T13:42:19.970Z,40.70
2022-12-23T13:45:13.355Z,36.92
2022-12-23T13:48:22.867Z,27.13
2022-12-23T13:51:16.991Z,27.50
2022-12-23T13:54:13.975Z,27.45
2022-12-23T13:57:25.202Z,30.05
2022-12-23T14:00:16.659Z,26.08
2022-12-23T14:03:02.699Z,27.60
2022-12-23T14:05:50.833Z,27.25
2022-12-23T14:08:42.402Z,31.75
2022-12-23T14:11:32.109Z,34.97
2022-12-23T14:14:24.803Z,28.63
2022-12-23T14:17:27.417Z,34.42
2022-12-23T14:20:37.619Z,32.38
2022-12-23T14:24:11.025Z,32.30
2022-12-23T14:27:27.270Z,37.92
2022-12-23T14:30:30.784Z,35.50
2022-12-23T14:33:32.692Z,38.47
2022-12-23T14:36:26.826Z,32.40
2022-12-23T14:39:12.178Z,38.33
2022-12-23T14:42:05.146Z,37.67
2022-12-23T14:44:52.617Z,34.72
2022-12-23T14:47:40.469Z,30.60
2022-12-23T14:50:42.650Z,31.13
2022-12-23T14:53:32.275Z,28.40
2022-12-23T14:56:39.773Z,28.38
2022-12-23T14:59:46.919Z,26.42
2022-12-23T15:02:41.343Z,27.23
2022-12-23T15:05:27.535Z,26.92
2022-12-23T15:08:41.900Z,30.70
2022-12-23T15:11:32.037Z,32.30
2022-12-23T15:14:52.475Z,32.28
2022-12-23T15:17:38.447Z,27.30
2022-12-23T15:20:25.579Z,32.85
2022-12-23T15:23:16.832Z,32.90
2022-12-23T15:26:02.744Z,33.45
2022-12-23T15:28:48.512Z,29.63
2022-12-23T15:31:42.292Z,31.17
2022-12-23T15:34:33.123Z,27.90
2022-12-23T15:37:29.736Z,27.67
2022-12-23T15:40:38.576Z,32.58
2022-12-23T15:43:24.398Z,29.95
2022-12-23T15:46:29.327Z,30.60
2022-12-23T15:49:16.652Z,35.83
2022-12-23T15:52:09.741Z,36.47
2022-12-23T15:55:12.012Z,36.63
2022-12-23T15:57:59.214Z,40.15
2022-12-23T16:01:15.448Z,39.88
2022-12-23T16:04:01.633Z,32.22
2022-12-23T16:06:51.635Z,36.70
2022-12-23T16:09:37.134Z,36.50
2022-12-23T16:12:26.219Z,35.53
2022-12-23T16:15:30.941Z,36.22
2022-12-23T16:18:19.312Z,38.80
2022-12-23T16:21:11.793Z,36.40
2022-12-23T16:24:00.634Z,32.60
2022-12-23T16:26:46.517Z,32.53
2022-12-23T16:29:33.514Z,37.50
2022-12-23T16:32:20.285Z,34.13
2022-12-23T16:35:33.200Z,31.80
2022-12-23T16:41:07.062Z,30.95
2022-12-23T16:43:53.850Z,30.02
2022-12-23T16:46:46.498Z,30.02
2022-12-23T16:49:35.569Z,36.17
2022-12-23T16:52:21.709Z,35.55
2022-12-23T16:55:18.168Z,34.22
2022-12-23T16:58:03.808Z,34.85
2022-12-23T17:00:49.533Z,29.80
2022-12-23T17:03:35.066Z,34.28
2022-12-23T17:06:21.471Z,30.98
2022-12-23T17:09:10.163Z,33.75
2022-12-23T17:11:56.468Z,33.60
2022-12-23T17:14:42.243Z,33.47
2022-12-23T17:17:28.709Z,37.70
2022-12-23T17:20:14.815Z,36.55
2022-12-23T17:23:00.923Z,34.65
2022-12-23T17:25:46.313Z,41.03
2022-12-23T17:28:32.883Z,32.70
2022-12-23T17:31:26.753Z,35.45
2022-12-23T17:34:22.694Z,35.10
2022-12-23T17:37:28.253Z,36.95
2022-12-23T17:40:15.251Z,40.78
2022-12-23T17:43:00.676Z,44.13
2022-12-23T17:45:47.310Z,48.53
2022-12-23T17:48:33.891Z,52.65
2022-12-23T17:51:22.256Z,49.13
2022-12-23T17:54:24.881Z,45.45
2022-12-23T17:57:22.705Z,40.63
2022-12-23T18:00:10.541Z,42.63
2022-12-23T18:02:57.815Z,38.38
2022-12-23T18:05:43.414Z,37.97
2022-12-23T18:08:29.140Z,39.45
2022-12-23T18:11:35.769Z,43.72
2022-12-23T18:14:28.187Z,38.92
2022-12-23T18:17:17.852Z,38.75
2022-12-23T18:20:04.914Z,39.40
2022-12-23T18:22:54.056Z,41.45
2022-12-23T18:25:43.246Z,45.20
2022-12-23T18:28:28.792Z,44.15
2022-12-23T18:31:21.176Z,44.08
2022-12-23T18:36:52.460Z,46.85
2022-12-23T18:39:38.510Z,45.33
2022-12-23T18:42:23.775Z,47.13
2022-12-23T18:45:36.971Z,47.95
2022-12-23T18:48:22.454Z,49.75
2022-12-23T18:51:20.821Z,49.05
2022-12-23T18:54:06.835Z,51.72
2022-12-23T18:56:52.711Z,49.58
2022-12-23T18:59:39.862Z,47.70
2022-12-23T19:02:25.734Z,45.92
2022-12-23T19:05:27.989Z,54.65
2022-12-23T19:08:13.552Z,54.00
2022-12-23T19:11:00.281Z,56.55
2022-12-23T19:13:46.653Z,50.00
2022-12-23T19:16:32.344Z,48.58
2022-12-23T19:19:18.517Z,45.78
2022-12-23T19:22:04.277Z,45.85
2022-12-23T19:25:04.417Z,49.50
2022-12-23T19:27:51.863Z,45.63
2022-12-23T19:30:40.445Z,46.50
2022-12-23T19:33:26.022Z,42.13
2022-12-23T19:36:15.004Z,42.28
2022-12-23T19:39:00.846Z,43.22
2022-12-23T19:41:46.378Z,40.28
2022-12-23T19:44:35.729Z,40.90
2022-12-23T19:47:21.516Z,42.53
2022-12-23T19:50:08.186Z,35.72
2022-12-23T19:52:54.836Z,35.75
2022-12-23T19:55:40.721Z,41.22
2022-12-23T19:58:26.521Z,41.88
2022-12-23T20:01:22.665Z,40.03
2022-12-23T20:04:09.934Z,46.50
2022-12-23T20:06:55.343Z,50.25
2022-12-23T20:09:41.104Z,42.97
2022-12-23T20:12:28.082Z,42.67
2022-12-23T20:15:13.969Z,44.47
2022-12-23T20:17:59.792Z,42.35
2022-12-23T20:20:45.468Z,46.25
2022-12-23T20:23:31.536Z,42.15
2022-12-23T20:26:18.748Z,42.58
2022-12-23T20:29:04.707Z,41.92
2022-12-23T20:31:50.660Z,52.00
2022-12-23T20:34:39.606Z,44.78
2022-12-23T20:37:25.737Z,42.63
2022-12-23T20:40:12.886Z,42.95
2022-12-23T20:43:01.347Z,52.10
2022-12-23T20:45:46.766Z,51.65
2022-12-23T20:48:34.223Z,61.05
2022-12-23T20:51:25.468Z,55.63
2022-12-23T20:54:10.883Z,58.03
2022-12-23T20:56:56.379Z,59.05
2022-12-23T20:59:41.814Z,59.97
2022-12-23T21:02:27.234Z,60.28
2022-12-23T21:05:13.057Z,57.20
2022-12-23T21:07:58.472Z,57.63
2022-12-23T21:10:43.947Z,59.08
2022-12-23T21:13:29.364Z,58.33
2022-12-23T21:16:15.691Z,62.50
2022-12-23T21:19:01.576Z,66.93
2022-12-23T21:21:48.531Z,62.22
2022-12-23T21:24:34.222Z,63.70
2022-12-23T21:27:21.336Z,63.65
2022-12-23T21:30:08.141Z,62.15
2022-12-23T21:32:56.794Z,66.03
2022-12-23T21:35:42.559Z,68.50
2022-12-23T21:38:33.575Z,79.55
2022-12-23T21:41:27.491Z,73.03
2022-12-23T21:44:16.369Z,74.03
2022-12-23T21:47:02.152Z,62.10
2022-12-23T21:49:47.994Z,65.45
2022-12-23T21:55:16.033Z,55.35
2022-12-23T21:58:02.118Z,57.88
2022-12-23T22:00:47.821Z,55.15
2022-12-23T22:03:33.374Z,50.95
2022-12-23T22:06:21.326Z,51.58
2022-12-23T22:09:08.529Z,55.05
2022-12-23T22:11:56.583Z,49.72
2022-12-23T22:14:41.967Z,45.65
2022-12-23T22:17:27.187Z,46.10
2022-12-23T22:20:12.964Z,45.75
2022-12-23T22:22:58.490Z,52.15
2022-12-23T22:25:54.973Z,59.50
2022-12-23T22:28:41.012Z,56.72
2022-12-23T22:31:35.843Z,63.38
2022-12-23T22:34:22.689Z,73.13
2022-12-23T22:37:07.957Z,68.22
2022-12-23T22:39:53.479Z,72.43
2022-12-23T22:42:38.793Z,70.47
2022-12-23T22:45:24.297Z,76.05
2022-12-23T22:48:09.683Z,59.83
2022-12-23T22:51:12.191Z,51.17
2022-12-23T22:53:58.040Z,35.28
2022-12-23T22:56:44.055Z,52.78
2022-12-23T22:59:29.336Z,47.03
2022-12-23T23:02:15.019Z,48.83
2022-12-23T23:05:00.506Z,46.83
2022-12-23T23:07:45.973Z,51.78
2022-12-23T23:10:31.527Z,45.47
2022-12-23T23:13:17.076Z,43.40
2022-12-23T23:16:03.269Z,39.75
2022-12-23T23:18:49.069Z,47.42
2022-12-23T23:21:35.463Z,39.70
2022-12-23T23:24:23.041Z,37.40
2022-12-23T23:27:11.299Z,42.72
2022-12-23T23:29:56.734Z,31.77
2022-12-23T23:32:42.729Z,32.97
2022-12-23T23:35:28.609Z,34.63
2022-12-23T23:38:13.658Z,30.75
2022-12-23T23:40:59.156Z,37.17
2022-12-23T23:43:44.592Z,30.60
2022-12-23T23:46:31.825Z,35.47
2022-12-23T23:49:17.636Z,33.55
2022-12-23T23:52:02.988Z,53.33
2022-12-23T23:54:48.463Z,38.50
2022-12-23T23:57:34.173Z,39.30
